Saint Médard d'Aunis (17)                   Mars 2012                      
  Température (°C) - Abri Young à ventilation mécanique 43502 Humidité Vent (km/h) Précipitations (mm) Pression (hPa) Divers  
Date Maxi Mini Moy de 1440 relevés Moy (tx+tn)/2 Index chaleur moyen Index chaleur maxi Froid dû au vent moy  Froid dû au vent mini/1min   Amplitude (Tx-Tn) Tx OMM/1min Tn OMM/1min Tm OMM/1min Relative maxi Relative mini Relative moy de 1440 relevés Relative moy (hx+hn)/2 Point de rosée maxi Point de rosée mini Point de rosée moy 1440 relevés Vent moy maxi (10min) Vent  moyen (24h) Direction dominante Rafales (km/h) maxi Direction rafale maxi Rafales moy (24h) Total du jour (mm) Durée en heures et dixièmes Intensité maxi sur 1 min (mm/h) Maxi Mini Moy de 1440 relevés Moy (px+pn)/2 Variation Epaisseur neige (cm) Remarques diverses  
01/03/2012 18,1 1,9 9,31 10,00 9,19 17,7 8,60 0,2 16,2 17,9 2,1 10,00 95% 58% 83,2% 76,5% 11,0 0,5 6,40 16,42 6,79 NE 24,1 NE 9,04 0,0 0,0 0,0 1026,1 1022,8 1024,55 1024,45 3,3   Ciel 1/8 le matin, 1/8 à 6/8 l'après-midi  
02/03/2012 15,9 3,1 8,34 9,50 8,38 15,4 7,67 2,1 12,8 15,8 3,1 9,45 100% 68% 91,4% 84,0% 10,6 2,0 6,89 10,95 5,03 ENE 17,7 ENE 7,16 0,2 0,1 12,0 1026,3 1022,2 1024,21 1024,25 4,1   Brouillard, ciel 8/8, 0/8 en milieu d'après-midi  
03/03/2012 14,2 4,3 9,31 9,25 9,46 14,1 7,86 3,8 9,9 14,2 4,4 9,30 99% 83% 95,2% 91,0% 11,9 3,6 8,56 26,72 10,58 SW 37,0 WSW 13,58 0,4 0,2 12,0 1027,9 1024,1 1026,35 1026,00 3,8   Brouillard matin et soir, ciel entre 3/8 et 8/8, pluie faible l'après-midi  
04/03/2012 11,2 3,8 8,27 7,50 8,35 11,4 5,71 0,6 7,4 11,2 3,9 7,55 100% 66% 89,5% 83,0% 10,8 0,0 6,53 38,61 15,50 SSE 57,9 NNW 20,36 4,8 1,6 12,0 1030,5 1017,9 1023,42 1024,20 12,6   Brouillard, ciel entre 6/8 et 8/8, pluie l'après-midi  
05/03/2012 11,3 -1,1 6,12 5,10 5,87 10,6 2,93 -3,7 12,4 11,2 -1,0 5,10 92% 50% 74,1% 71,0% 4,9 -2,6 1,67 32,68 16,66 NW 43,5 WNW 20,69 0,0 0,0 0,0 1032,6 1028,5 1030,62 1030,55 4,1   Ciel 0/8 à 3/8  
06/03/2012 11,5 -2,0 5,02 4,75 4,79 10,4 3,34 -1,9 13,5 11,3 -1,9 4,70 92% 45% 77,9% 68,5% 4,6 -3,4 1,18 17,06 8,39 NNW 25,7 NNW 10,86 0,0 0,0 0,0 1030,0 1027,5 1028,39 1028,75 2,5   Ciel 0/8 à 5/8 le matin, 5/8 à 6/8 l'après-midi, 0/8 le soir  
07/03/2012 11,7 -2,4 5,29 4,65 5,22 11,2 2,97 -4,2 14,1 11,6 -2,3 4,65 96% 65% 84,8% 80,5% 9,0 -3,6 2,83 30,11 13,64 SW 43,5 SW 17,66 1,8 0,8 12,0 1030,1 1025,1 1028,17 1027,60 5,0   Ciel 0/8 à 7/8 le matin, 7/8 à 8/8 ensuite, pluie en soirée  
08/03/2012 12,2 -0,2 5,94 6,00 5,71 11,4 3,90 -1,6 12,4 12,2 -0,1 6,05 92% 51% 77,9% 71,5% 5,7 -1,9 2,14 18,82 10,66 N 33,8 NNE 13,92 0,0 0,0 0,0 1039,1 1029,3 1035,18 1034,20 9,8   Ciel 4/8 à 6/8 le matin, 5/8 l'après-midi, 1/8 le soir  
09/03/2012 14,2 -2,6 5,96 5,80 5,63 12,9 5,11 -3,1 16,8 14,0 -2,5 5,75 95% 48% 76,4% 71,5% 5,0 -3,8 1,69 14,66 6,01 N 22,5 N 8,10 0,0 0,0 0,0 1040,0 1037,5 1038,72 1038,75 2,5   Ciel 0/8 à 3/8  
10/03/2012 12,7 -0,1 6,73 6,30 6,56 12,0 4,97 -1,5 12,8 12,6 0,0 6,30 94% 57% 80,9% 75,5% 6,6 -1,3 3,51 27,53 10,19 NNE 41,8 NNE 13,20 0,0 0,0 0,0 1039,3 1036,4 1037,93 1037,85 2,9   Ciel 3/8 à 8/8 le matin, 8/8 à 5/8 l'après-midi, 2/8 le soir  
11/03/2012 15,8 5,4 10,09 10,60 9,96 15,1 7,84 2,7 10,4 15,7 5,5 10,60 95% 62% 81,9% 78,5% 9,4 4,3 6,99 24,44 14,57 NNE 38,6 N 18,82 0,0 0,0 0,0 1037,0 1031,9 1034,71 1034,45 5,1   Ciel 4/8 à 8/8 le matin, 8/8 à 5/8 l'après-midi  
12/03/2012 18,6 3,8 11,05 11,20 10,64 17,5 8,70 1,1 14,8 18,5 3,9 11,20 90% 45% 71,3% 67,5% 7,8 2,0 5,62 26,38 16,00 NE 43,5 NE 20,95 0,0 0,0 0,0 1032,0 1028,1 1029,92 1030,05 3,9   Ciel 2/8  
13/03/2012 20,8 5,2 12,42 13,00 12,05 19,6 10,57 2,9 15,6 20,8 5,3 13,05 91% 41% 71,4% 66,0% 9,6 2,5 6,87 28,50 14,71 NE 43,5 ENE 19,50 0,0 0,0 0,0 1029,4 1026,2 1027,87 1027,80 3,2   Ciel 0/8  
14/03/2012 23,1 4,2 12,15 13,65 11,84 22,2 11,63 3,5 18,9 23,0 4,2 13,60 93% 35% 72,8% 64,0% 12,1 2,5 6,85 12,90 6,85 ENE 20,9 NE 9,22 0,0 0,0 0,0 1027,3 1025,1 1026,28 1026,20 2,2   Brume, ciel 0/8 à 1/8  
15/03/2012 20,0 0,4 9,63 10,20 9,47 19,6 9,59 -0,1 19,6 19,9 0,4 10,15 97% 47% 80,5% 72,0% 12,5 -0,4 6,05 7,87 2,95 N 11,3 WNW 4,14 0,0 0,0 0,0 1027,1 1024,6 1025,70 1025,85 2,5   Brouillard, ciel 0/8  
16/03/2012 9,7 3,5 7,40 6,60 7,52 9,8 6,55 2,9 6,2 9,7 3,6 6,65 99% 87% 93,5% 93,0% 8,7 2,4 6,40 13,54 6,13 W 20,9 WSW 7,94 0,2 0,1 12,0 1024,7 1021,4 1022,93 1023,05 3,3   Brouillard, ciel 8/8  
17/03/2012 13,5 7,0 9,86 10,25 9,92 13,2 7,73 3,7 6,5 13,5 7,1 10,30 96% 71% 89,0% 83,5% 10,1 6,0 8,07 28,35 13,98 SSW 40,2 SW 18,70 3,0 1,3 12,0 1022,5 1017,3 1019,64 1019,90 5,2   Ciel entre 6/8 et 8/8, averses, pluie  
18/03/2012 12,1 4,7 7,91 8,40 7,87 11,6 5,26 2,0 7,4 12,1 4,7 8,40 95% 61% 85,3% 78,0% 8,6 3,4 5,50 29,47 15,01 S 51,5 WSW 18,94 5,4 1,8 36,0 1027,1 1016,5 1019,90 1021,80 10,6   Ciel entre 4/8 et 8/8, averses, grêle  
19/03/2012 11,2 -0,7 4,98 5,25 4,86 10,6 3,00 -1,9 11,9 11,1 -0,7 5,20 97% 60% 84,2% 78,5% 5,5 -2,0 2,35 20,74 9,70 N 30,6 NNE 12,65 0,0 0,0 0,0 1037,4 1027,0 1033,37 1032,20 10,4   Brouillard, ciel entre 2/8 et 8/8, 3/8 le soir  
20/03/2012 13,9 -3,3 5,73 5,30 5,30 12,9 4,52 -4,4 17,2 13,9 -3,3 5,30 96% 43% 72,8% 69,5% 5,1 -4,3 0,64 19,46 7,84 NNE 30,6 NNE 10,47 0,2 0,1 12,0 1037,6 1033,2 1035,74 1035,40 4,4   Brouillard, ciel 0/8 à 2/8 le matin, 2/8 à 4/8 l'après-midi  
21/03/2012 12,6 0,3 7,60 6,45 7,51 12,0 6,11 -2,7 12,3 12,4 0,6 6,50 95% 67% 82,0% 81,0% 9,7 -1,7 4,68 16,42 8,68 ENE 27,4 NE 11,85 1,0 0,4 12,0 1033,2 1023,5 1027,47 1028,35 9,7   Ciel 4/8 à 8/8, pluie l'après-midi  
22/03/2012 16,6 7,5 11,28 12,05 11,33 16,0 10,92 5,8 9,1 16,3 7,6 11,95 97% 68% 87,9% 82,5% 12,3 6,5 9,27 15,46 5,75 SSE 20,9 SE 7,62 1,6 0,6 12,0 1027,2 1023,1 1025,18 1025,15 4,1   Ciel entre 5/8 et 8/8, averses le matin  
23/03/2012 21,7 1,9 12,72 11,80 12,18 20,2 12,38 2,0 19,8 21,7 2,0 11,85 99% 34% 69,2% 66,5% 10,7 1,3 6,19 20,90 7,11 ENE 35,4 ESE 9,94 0,0 0,0 0,0 1026,7 1022,8 1024,72 1024,75 3,9   Ciel 2/8 à 4/8, voilé  
24/03/2012 23,6 1,8 12,74 12,70 12,29 22,9 12,36 0,0 21,8 23,5 1,9 12,70 95% 33% 67,4% 64,0% 11,1 0,4 5,87 13,22 6,43 ENE 24,1 ENE 8,62 0,0 0,0 0,0 1025,7 1022,9 1023,97 1024,30 2,8   Ciel 0/8 à 1/8  
25/03/2012 23,2 2,4 14,03 12,80 13,57 22,5 13,10 0,6 20,8 23,1 2,6 12,85 93% 35% 65,3% 64,0% 11,3 0,3 6,89 18,66 10,71 NE 30,6 ENE 13,88 0,0 0,0 0,0 1027,9 1025,7 1026,79 1026,80 2,2   Ciel 1/8 à 2/8 voilé  
26/03/2012 23,1 7,8 14,63 15,45 14,06 22,3 13,35 5,6 15,3 23,0 7,8 15,40 81% 36% 61,1% 58,5% 9,8 4,4 6,67 19,94 12,84 NE 33,8 ENE 17,16 0,0 0,0 0,0 1028,4 1026,5 1027,49 1027,45 1,9   Ciel 0/8 à 1/8  
27/03/2012 23,6 7,3 14,73 15,45 14,01 22,8 14,05 5,3 16,3 23,5 7,4 15,45 74% 31% 55,0% 52,5% 9,2 2,9 5,21 15,14 9,71 ENE 24,1 E 12,97 0,0 0,0 0,0 1029,9 1027,8 1028,72 1028,85 2,1   Ciel 0/8  
28/03/2012 23,4 2,3 14,21 12,85 13,56 22,7 13,15 0,6 21,1 23,4 2,4 12,90 88% 33% 59,6% 60,5% 9,1 0,1 5,63 23,48 11,63 NNE 37,0 NNE 15,24 0,0 0,0 0,0 1028,9 1024,6 1026,74 1026,75 4,3   Ciel 0/8  
29/03/2012 23,5 8,4 15,07 15,95 14,53 22,9 13,63 6,0 15,1 23,4 8,5 15,95 85% 36% 60,4% 60,5% 11,0 2,5 6,78 27,36 14,23 NNE 40,2 NE 18,47 0,0 0,0 0,0 1025,2 1022,0 1023,83 1023,60 3,2   Ciel 0/8  
30/03/2012 21,6 4,9 13,69 13,25 13,12 20,4 12,39 3,3 16,7 21,5 4,9 13,20 79% 43% 62,7% 61,0% 10,2 0,5 6,33 24,44 12,66 NE 38,6 NE 16,61 0,0 0,0 0,0 1023,7 1018,5 1021,75 1021,10 5,2   Ciel 0/8 à 1/8  
31/03/2012 22,2 4,7 13,80 13,45 13,33 21,2 12,54 3,8 17,5 22,1 4,8 13,45 86% 41% 66,2% 63,5% 10,9 2,1 7,15 24,94 12,20 NNE 40,2 NE 16,23 0,0 0,0 0,0 1018,5 1012,5 1015,21 1015,50 6,0   Ciel 0/8 à 1/8  
  Température (°C) - Abri Young à ventilation mécanique 43502 Humidité Vent (km/h) Précipitations (mm) Pression (hPa) Divers  
  Maxi Mini Moy de 1440 relevés Moy (tx+tn)/2 Index chaleur moyen Index chaleur maxi Froid dû au vent moy  Froid dû au vent mini/1min   Amplitude (Tx-Tn) Tx OMM/1min Tn OMM/1min Tm OMM/1min Relative maxi Relative mini Relative moy de 1440 relevés Relative moy (hx+hn)/2 Point de rosée maxi Point de rosée mini Point de rosée moy 1440 relevés Vent moy maxi (10min) Vent  moyen (24h) Direction dominante Rafales (km/h) maxi Direction rafale maxi Rafales moy (24h) Total du jour (mm) Durée en heures et dixièmes Intensité maxi sur 1 min (mm/h) Maxi Mini Moy de 1440 relevés Moy (px+pn)/2 Variation Epaisseur neige (cm) Remarques diverses  
Maxi 23,6 8,4 15,07 15,95 14,53 22,9 14,05 6,0 21,8 23,5 8,5 15,95 100% 87% 95,2% 93,0% 12,5 6,5 9,27 38,61 16,66 NE 57,9 NNW 20,95 5,4 1,8 36,0 1040,0 1037,5 1038,72 1038,75 12,6 0,0    
Mini 9,7 -3,3 4,98 4,65 4,79 9,8 2,93 -4,4 6,2 9,7 -3,3 4,65 74% 31% 55,0% 52,5% 4,6 -4,3 0,64 7,87 2,95   11,3   4,14       1018,5 1012,5 1015,21 1015,50 1,9      
Moy 16,99 2,72 9,87 9,85 9,62 16,29 8,47 1,08 14,28 16,91 2,80 9,85 92,8% 51,6% 76,5% 72,2% 9,19 0,81 5,40 21,46 10,42   33,27   13,69       1029,65 1024,92 1027,27 1027,29 4,74      
Total                                                   18,6 6,8             0,0    
 
  Observations      
Jours Rafales >= 36,0 km/h Rafales >= 57,6 km/h Rafales >= 75,6 km/h Rafales >= 100,8 km/h Précipi. >= 0,1 mm Précipi. >= 1,0 mm Précipi. >= 5,0 mm Précipi. >= 10,0 mm Tx <= 0 Tx >= 25 Tx >= 30 Tx >= 35 Tx >= 40 Tn <= 0 Tn <= -5 Tn <= -10 Tn <= -15 T moy <= 0 T moy <=     -5 T moy >= 20 T moy >= 25 T moy >= 30 Grêle Grésil Brouillard Brume Orage Neige        
01/03/2012 0 0 0 0 0 0 0 0 0 0 0 0 0 0 0 0 0 0 0 0 0 0 0 0 0 0 0 0    
02/03/2012 0 0 0 0 1 0 0 0 0 0 0 0 0 0 0 0 0 0 0 0 0 0 0 0 1 0 0 0    
03/03/2012 1 0 0 0 1 0 0 0 0 0 0 0 0 0 0 0 0 0 0 0 0 0 0 0 1 0 0 0    
04/03/2012 1 1 0 0 1 1 0 0 0 0 0 0 0 0 0 0 0 0 0 0 0 0 0 0 1 0 0 0    
05/03/2012 1 0 0 0 0 0 0 0 0 0 0 0 0 1 0 0 0 0 0 0 0 0 0 0 0 0 0 0    
06/03/2012 0 0 0 0 0 0 0 0 0 0 0 0 0 1 0 0 0 0 0 0 0 0 0 0 0 0 0 0    
07/03/2012 1 0 0 0 1 1 0 0 0 0 0 0 0 1 0 0 0 0 0 0 0 0 0 0 0 0 0 0    
08/03/2012 0 0 0 0 0 0 0 0 0 0 0 0 0 1 0 0 0 0 0 0 0 0 0 0 0 0 0 0    
09/03/2012 0 0 0 0 0 0 0 0 0 0 0 0 0 1 0 0 0 0 0 0 0 0 0 0 0 0 0 0    
10/03/2012 1 0 0 0 0 0 0 0 0 0 0 0 0 1 0 0 0 0 0 0 0 0 0 0 0 0 0 0    
11/03/2012 1 0 0 0 0 0 0 0 0 0 0 0 0 0 0 0 0 0 0 0 0 0 0 0 0 0 0 0    
12/03/2012 1 0 0 0 0 0 0 0 0 0 0 0 0 0 0 0 0 0 0 0 0 0 0 0 0 0 0 0    
13/03/2012 1 0 0 0 0 0 0 0 0 0 0 0 0 0 0 0 0 0 0 0 0 0 0 0 0 0 0 0    
14/03/2012 0 0 0 0 0 0 0 0 0 0 0 0 0 0 0 0 0 0 0 0 0 0 0 0 0 1 0 0    
15/03/2012 0 0 0 0 0 0 0 0 0 0 0 0 0 0 0 0 0 0 0 0 0 0 0 0 1 0 0 0    
16/03/2012 0 0 0 0 1 0 0 0 0 0 0 0 0 0 0 0 0 0 0 0 0 0 0 0 1 0 0 0    
17/03/2012 1 0 0 0 1 1 0 0 0 0 0 0 0 0 0 0 0 0 0 0 0 0 0 0 0 0 0 0    
18/03/2012 1 0 0 0 1 1 1 0 0 0 0 0 0 0 0 0 0 0 0 0 0 0 1 0 0 0 0 0    
19/03/2012 0 0 0 0 0 0 0 0 0 0 0 0 0 1 0 0 0 0 0 0 0 0 0 0 1 0 0 0    
20/03/2012 0 0 0 0 1 0 0 0 0 0 0 0 0 1 0 0 0 0 0 0 0 0 0 0 1 0 0 0    
21/03/2012 0 0 0 0 1 1 0 0 0 0 0 0 0 0 0 0 0 0 0 0 0 0 0 0 0 0 0 0    
22/03/2012 0 0 0 0 1 1 0 0 0 0 0 0 0 0 0 0 0 0 0 0 0 0 0 0 0 0 0 0    
23/03/2012 0 0 0 0 0 0 0 0 0 0 0 0 0 0 0 0 0 0 0 0 0 0 0 0 0 0 0 0    
24/03/2012 0 0 0 0 0 0 0 0 0 0 0 0 0 0 0 0 0 0 0 0 0 0 0 0 0 0 0 0    
25/03/2012 0 0 0 0 0 0 0 0 0 0 0 0 0 0 0 0 0 0 0 0 0 0 0 0 0 0 0 0    
26/03/2012 0 0 0 0 0 0 0 0 0 0 0 0 0 0 0 0 0 0 0 0 0 0 0 0 0 0 0 0    
27/03/2012 0 0 0 0 0 0 0 0 0 0 0 0 0 0 0 0 0 0 0 0 0 0 0 0 0 0 0 0    
28/03/2012 1 0 0 0 0 0 0 0 0 0 0 0 0 0 0 0 0 0 0 0 0 0 0 0 0 0 0 0    
29/03/2012 1 0 0 0 0 0 0 0 0 0 0 0 0 0 0 0 0 0 0 0 0 0 0 0 0 0 0 0    
30/03/2012 1 0 0 0 0 0 0 0 0 0 0 0 0 0 0 0 0 0 0 0 0 0 0 0 0 0 0 0    
31/03/2012 1 0 0 0 0 0 0 0 0 0 0 0 0 0 0 0 0 0 0 0 0 0 0 0 0 0 0 0    
   
  Rafales >= 36,0 km/h Rafales >= 57,6 km/h Rafales >= 75,6 km/h Rafales >= 100,8 km/h Précipi. >= 0,1 mm Précipi. >= 1,0 mm Précipi. >= 5,0 mm Précipi. >= 10,0 mm Tx <=0 Tx >= 25 Tx >= 30 Tx >= 35 Tx >= 40 Tn <= 0 Tn <= -5 Tn <= -10 Tn <= -15 T moy <= 0 T moy <=  -5 T moy >= 20 T moy >= 25 T moy >= 30 Grêle Grésil Brouillard Brume Orage Neige        
Total 14 1 0 0 10 6 1 0 0 0 0 0 0 8 0 0 0 0 0 0 0 0 1 0 7 1 0 0